Time;durP1;ratioP1;P1;durP2;ratioP2;P2;SDS_P1;SDS_P2;PMS_P1;PMS_P2;Temp;Humidity;BMP_temperature;BMP_pressure;BME280_temperature;BME280_humidity;BME280_pressure;Samples;Min_cycle;Max_cycle;Signal;HPM_P1;HPM_P2
2024/02/26 08:08:56;;;;;;;1.25;0.77;;;;;;;;;;2083414;28;21082;-60
2024/02/26 08:15:58;;;;;;;1.48;0.70;;;;;;;;;;2082812;28;20564;-62
2024/02/26 08:20:34;;;;;;;1.65;0.80;;;;;;;;;;2083873;28;20577;-60
2024/02/26 08:54:34;;;;;;;4.30;1.00;;;;;;;6.30;86.22;94873.66;2083748;28;21290;-62
2024/02/26 08:58:29;;;;;;;9.35;1.75;;;;;;;6.22;87.44;94881.84;2082933;28;20551;-60
2024/02/26 09:02:55;;;;;;;3.35;1.27;;;;;;;6.26;87.04;94882.50;2082273;28;20552;-61
2024/02/26 09:07:15;;;;;;;1.77;0.90;;;;;;;6.32;86.51;94879.56;2085103;28;20548;-60
2024/02/26 09:10:39;;;;;;;2.65;0.80;;;;;;;6.27;86.99;94869.47;2083881;28;20549;-60
2024/02/26 09:11:41;;;;;;;2.10;0.85;;;;;;;6.30;87.25;94874.47;2072118;28;20310;-60
2024/02/26 09:14:30;;;;;;;1.50;0.70;;;;;;;6.42;86.27;94869.53;2083732;27;20557;-60
2024/02/26 09:15:32;;;;;;;1.70;0.90;;;;;;;6.45;85.67;94851.19;2081500;28;20189;-60
2024/02/26 09:16:33;;;;;;;2.60;0.90;;;;;;;6.68;84.63;94855.09;2072159;28;20221;-60
2024/02/26 09:17:35;;;;;;;1.45;0.75;;;;;;;6.69;84.28;94864.50;2074071;28;20692;-60
2024/02/26 09:18:36;;;;;;;1.83;0.85;;;;;;;6.75;83.30;94865.94;2073947;28;20194;-60
2024/02/26 09:19:38;;;;;;;1.70;0.90;;;;;;;6.97;82.23;94860.31;2074060;28;20193;-60
2024/02/26 09:22:15;;;;;;;1.73;0.73;;;;;;;7.02;81.94;94840.09;2084444;28;20555;-60
2024/02/26 09:40:16;;;;;;;2.30;1.10;;;;;;;7.34;82.04;94882.34;2086741;28;21059;-60
2024/02/26 09:42:45;;;;;;;2.55;1.00;;;;;;;7.22;80.75;94874.44;2084926;27;20556;-60
2024/02/26 09:43:49;;;;;;;3.45;1.15;;;;;;;7.30;80.94;94887.78;2077734;28;20189;-60
2024/02/26 09:44:53;;;;;;;2.95;1.20;;;;;;;7.35;80.90;94890.94;2073974;28;20203;-60
2024/02/26 09:45:55;;;;;;;1.95;0.90;;;;;;;7.38;80.60;94884.72;2079726;28;20280;-64
2024/02/26 09:46:58;;;;;;;3.25;0.90;;;;;;;7.54;79.93;94889.84;2068704;28;20212;-64
2024/02/26 09:48:02;;;;;;;3.08;1.15;;;;;;;7.57;79.41;94880.13;2069693;28;20255;-64
2024/02/26 09:49:05;;;;;;;2.35;0.88;;;;;;;7.73;80.41;94892.16;2073777;28;20204;-64
2024/02/26 09:50:09;;;;;;;1.65;0.80;;;;;;;7.84;79.54;94900.13;2067802;28;20202;-64
2024/02/26 09:51:11;;;;;;;9.98;1.10;;;;;;;7.83;78.72;94899.31;2070283;28;20231;-64
2024/02/26 09:52:15;;;;;;;3.10;1.13;;;;;;;8.14;78.48;94891.38;2064090;28;20198;-64
2024/02/26 09:53:18;;;;;;;2.85;1.25;;;;;;;8.08;78.84;94894.34;2065707;28;20212;-64
2024/02/26 09:54:19;;;;;;;7.05;1.02;;;;;;;8.13;78.07;94892.28;2066516;28;20194;-64
2024/02/26 09:55:21;;;;;;;5.25;1.17;;;;;;;8.28;76.59;94895.69;2064675;28;20713;-64
2024/02/26 09:56:23;;;;;;;4.85;1.00;;;;;;;8.24;76.43;94881.19;2060657;28;20227;-64
2024/02/26 09:57:25;;;;;;;4.43;1.10;;;;;;;8.38;76.29;94895.94;2062172;28;20723;-64
2024/02/26 09:58:28;;;;;;;3.42;1.20;;;;;;;8.30;76.00;94906.81;2065709;28;20234;-66
2024/02/26 09:59:39;;;;;;;2.00;1.00;;;;;;;8.41;76.25;94901.78;2064806;28;20212;-64
2024/02/26 10:00:42;;;;;;;3.10;1.17;;;;;;;8.70;75.71;94906.06;2065031;28;20599;-64
2024/02/26 10:01:46;;;;;;;3.75;1.38;;;;;;;8.73;75.36;94892.88;2060834;28;20274;-64
2024/02/26 10:02:48;;;;;;;3.75;1.55;;;;;;;9.19;73.95;94902.81;2058176;28;20611;-64
2024/02/26 10:03:57;;;;;;;3.17;1.17;;;;;;;9.57;73.03;94894.22;2059264;28;20199;-65
2024/02/26 10:05:01;;;;;;;2.58;1.20;;;;;;;9.67;73.62;94894.41;2059808;28;20217;-64
2024/02/26 10:06:05;;;;;;;2.58;1.00;;;;;;;9.67;73.26;94896.19;2060444;28;20337;-64
2024/02/26 10:07:11;;;;;;;2.90;1.00;;;;;;;8.80;73.50;94902.78;2063325;28;20756;-64
2024/02/26 10:08:14;;;;;;;4.40;1.00;;;;;;;8.91;74.90;94898.63;2063643;28;20202;-66
2024/02/26 10:09:16;;;;;;;1.70;0.80;;;;;;;8.95;74.51;94889.66;2064013;28;20198;-66
2024/02/26 10:10:18;;;;;;;2.45;0.80;;;;;;;9.06;74.56;94891.56;2063858;28;20261;-66
2024/02/26 10:11:20;;;;;;;3.22;1.00;;;;;;;8.82;75.03;94897.47;2058694;28;20289;-66
2024/02/26 10:12:23;;;;;;;1.85;0.80;;;;;;;8.74;74.68;94903.16;2063273;28;20195;-66
2024/02/26 10:13:25;;;;;;;1.85;0.90;;;;;;;8.52;74.99;94903.72;2061475;28;20596;-66
2024/02/26 10:14:26;;;;;;;4.57;1.40;;;;;;;7.87;76.97;94906.91;2058862;28;20669;-66
2024/02/26 10:15:28;;;;;;;2.28;1.08;;;;;;;7.78;79.07;94910.91;2063837;28;20248;-66
2024/02/26 10:16:30;;;;;;;1.33;0.80;;;;;;;7.77;78.34;94907.47;2062467;28;20242;-65
2024/02/26 10:17:32;;;;;;;1.98;0.82;;;;;;;7.96;77.48;94901.13;2064452;28;20689;-66
2024/02/26 10:18:50;;;;;;;2.65;1.10;;;;;;;7.92;76.46;94897.91;2061482;28;20690;-66
2024/02/26 10:20:15;;;;;;;4.68;1.05;;;;;;;8.12;76.34;94909.66;2061681;28;20198;-66
2024/02/26 10:21:18;;;;;;;2.13;0.90;;;;;;;8.31;76.37;94908.50;2063305;28;20253;-66
2024/02/26 10:22:21;;;;;;;1.60;0.88;;;;;;;8.28;76.38;94914.72;2065265;28;20782;-66
2024/02/26 10:23:25;;;;;;;6.15;0.80;;;;;;;8.15;75.38;94859.22;2063817;28;20240;-66
2024/02/26 10:24:28;;;;;;;2.80;1.10;;;;;;;8.49;74.59;94906.50;2065155;28;20205;-66
2024/02/26 10:25:34;;;;;;;3.03;0.77;;;;;;;8.59;75.28;94909.38;2062147;28;20620;-66
2024/02/26 10:26:35;;;;;;;2.38;0.77;;;;;;;8.56;75.88;94907.81;2061878;28;20226;-66
2024/02/26 10:27:37;;;;;;;5.25;0.75;;;;;;;8.84;74.87;94913.81;2064520;28;20206;-66
2024/02/26 10:28:41;;;;;;;2.33;0.80;;;;;;;8.83;74.36;94899.13;2065710;28;20285;-66
2024/02/26 10:29:43;;;;;;;2.75;0.82;;;;;;;8.83;73.60;94894.75;2064264;28;20209;-66
2024/02/26 10:30:45;;;;;;;1.83;1.00;;;;;;;8.79;74.03;94910.69;2065909;28;20198;-66
2024/02/26 10:31:47;;;;;;;2.40;0.88;;;;;;;8.78;74.56;94912.44;2061994;28;20227;-66
2024/02/26 10:32:50;;;;;;;4.20;1.25;;;;;;;8.91;74.40;94907.28;2064844;28;20638;-66
2024/02/26 10:33:55;;;;;;;3.92;1.15;;;;;;;9.04;73.72;94889.09;2063529;28;20202;-66
2024/02/26 10:34:57;;;;;;;2.10;0.80;;;;;;;9.34;73.42;94916.59;2064759;28;20195;-66
2024/02/26 10:35:59;;;;;;;1.90;0.80;;;;;;;9.35;72.50;94904.44;2064579;28;20328;-66
2024/02/26 10:37:01;;;;;;;1.85;0.80;;;;;;;9.32;72.21;94916.72;2065350;28;20557;-66
2024/02/26 10:38:04;;;;;;;2.38;0.90;;;;;;;9.47;71.96;94916.59;2063180;28;20202;-66
2024/02/26 10:39:05;;;;;;;2.80;0.95;;;;;;;9.53;72.10;94916.19;2064446;28;20197;-66
2024/02/26 10:40:11;;;;;;;2.05;1.20;;;;;;;9.64;71.39;94924.09;2065845;28;20198;-66
2024/02/26 10:41:15;;;;;;;2.00;0.90;;;;;;;9.58;71.59;94895.84;2057181;28;20201;-66
2024/02/26 10:42:19;;;;;;;2.72;1.13;;;;;;;9.89;71.15;94922.44;2065372;28;20696;-66
2024/02/26 10:43:21;;;;;;;2.35;0.90;;;;;;;9.84;70.62;94914.09;2063338;28;20233;-66
2024/02/26 10:44:22;;;;;;;1.80;0.90;;;;;;;10.11;70.17;94913.13;2065521;28;20247;-66
2024/02/26 10:45:24;;;;;;;1.80;0.90;;;;;;;10.03;69.90;94921.47;2064249;28;20206;-67
2024/02/26 10:46:26;;;;;;;1.70;0.82;;;;;;;10.84;68.30;94907.97;2058781;28;20759;-66
2024/02/26 10:47:29;;;;;;;1.80;0.80;;;;;;;11.71;65.89;94921.47;2062969;28;20333;-66
2024/02/26 10:48:30;;;;;;;2.53;0.95;;;;;;;12.41;64.20;94924.78;2064852;28;20259;-66
2024/02/26 10:49:34;;;;;;;3.67;0.90;;;;;;;12.94;62.35;94909.28;2065301;28;20227;-66
2024/02/26 10:50:35;;;;;;;4.80;1.00;;;;;;;13.53;61.12;94924.53;2064700;28;20648;-66
2024/02/26 10:51:38;;;;;;;3.17;0.90;;;;;;;13.95;59.13;94928.06;2063802;28;20236;-66
2024/02/26 10:52:41;;;;;;;1.85;0.90;;;;;;;13.25;59.91;94912.84;2062559;28;20254;-66
2024/02/26 10:53:45;;;;;;;3.53;0.90;;;;;;;13.61;60.20;94923.91;2058649;28;20242;-68
2024/02/26 10:54:48;;;;;;;2.65;0.90;;;;;;;13.59;59.93;94924.97;2055061;28;20203;-66
2024/02/26 10:55:57;;;;;;;2.35;0.85;;;;;;;13.53;59.28;94926.31;2052815;28;20207;-67
2024/02/26 10:57:00;;;;;;;4.38;1.05;;;;;;;13.35;59.99;94929.47;2053694;28;20231;-66
2024/02/26 10:58:02;;;;;;;1.95;0.90;;;;;;;13.17;60.06;94939.69;2055674;28;20295;-67
2024/02/26 10:59:07;;;;;;;1.60;0.90;;;;;;;12.91;60.64;94939.19;2056296;28;20207;-67
2024/02/26 11:00:15;;;;;;;2.70;1.02;;;;;;;13.15;59.58;94944.22;2053389;28;20261;-67
2024/02/26 11:01:19;;;;;;;2.17;0.90;;;;;;;13.29;59.51;94927.34;2055319;28;20749;-63
2024/02/26 11:02:21;;;;;;;2.53;0.90;;;;;;;12.97;60.81;94943.94;2058338;28;20203;-63
2024/02/26 11:03:24;;;;;;;2.20;0.90;;;;;;;12.95;61.13;94942.41;2059739;28;20214;-65
2024/02/26 11:04:28;;;;;;;2.92;1.00;;;;;;;13.45;60.78;94936.63;2056719;28;20235;-63
2024/02/26 11:05:30;;;;;;;2.95;1.05;;;;;;;13.59;59.39;94932.84;2057794;28;20206;-63
2024/02/26 11:06:34;;;;;;;2.22;1.00;;;;;;;13.67;59.18;94925.16;2055816;28;20345;-63
2024/02/26 11:07:36;;;;;;;3.08;1.30;;;;;;;14.65;58.55;94933.44;2059149;28;20210;-64
2024/02/26 11:08:39;;;;;;;4.38;1.00;;;;;;;15.27;56.36;94928.75;2060601;28;20237;-63
2024/02/26 11:09:44;;;;;;;7.45;0.80;;;;;;;16.03;53.42;94927.13;2055443;28;20293;-63
2024/02/26 11:10:52;;;;;;;1.95;0.90;;;;;;;-145.49;100.00;55703.94;2057728;28;20613;-63
2024/02/26 11:11:54;;;;;;;2.10;1.00;;;;;;;-145.49;100.00;55703.94;2053147;28;20243;-63
2024/02/26 11:12:59;;;;;;;2.63;1.00;;;;;;;-145.49;100.00;55703.94;2057790;28;20278;-65
2024/02/26 11:14:03;;;;;;;3.08;1.40;;;;;;;-145.49;100.00;55703.94;2057407;28;20222;-64
2024/02/26 11:15:05;;;;;;;5.68;1.30;;;;;;;-145.49;100.00;55703.94;2057659;28;20199;-64
2024/02/26 11:16:08;;;;;;;1.85;0.80;;;;;;;-145.49;100.00;55703.94;2057888;28;20305;-64
2024/02/26 11:17:10;;;;;;;4.63;0.90;;;;;;;-145.49;100.00;55703.94;2055674;28;20204;-64
2024/02/26 11:18:14;;;;;;;2.53;1.00;;;;;;;-145.49;100.00;55703.94;2057289;28;20206;-64
2024/02/26 11:19:17;;;;;;;3.15;1.05;;;;;;;-145.49;100.00;55703.94;2054183;28;20733;-64
2024/02/26 11:20:20;;;;;;;2.33;1.13;;;;;;;-145.49;100.00;55703.94;2051730;28;20832;-63
2024/02/26 11:21:31;;;;;;;2.03;0.80;;;;;;;-145.49;100.00;55703.94;2055985;28;20704;-64
2024/02/26 11:22:33;;;;;;;3.00;1.20;;;;;;;-145.49;100.00;55703.94;2053850;28;20255;-64
2024/02/26 11:23:40;;;;;;;8.43;1.00;;;;;;;-145.49;100.00;55703.94;2057509;28;20806;-64
2024/02/26 11:24:42;;;;;;;1.63;0.77;;;;;;;-145.49;100.00;55703.94;2058242;28;20890;-64
2024/02/26 11:25:44;;;;;;;3.20;1.20;;;;;;;-145.49;100.00;55703.94;2058624;28;20199;-64
2024/02/26 11:26:58;;;;;;;5.35;2.13;;;;;;;-145.49;100.00;55703.94;2057075;28;20226;-64
2024/02/26 11:28:05;;;;;;;3.63;1.08;;;;;;;-145.49;100.00;55703.94;2055982;28;20661;-64
2024/02/26 11:29:10;;;;;;;1.52;0.77;;;;;;;-145.49;100.00;55703.94;2057447;28;20234;-65
2024/02/26 11:30:13;;;;;;;8.73;0.90;;;;;;;-145.49;100.00;55703.94;2053703;28;20206;-64
2024/02/26 11:31:15;;;;;;;2.25;0.80;;;;;;;-145.49;100.00;55703.94;2054115;28;20289;-64
2024/02/26 11:32:16;;;;;;;1.70;1.00;;;;;;;-145.49;100.00;55703.94;2054824;28;20624;-64
2024/02/26 11:33:20;;;;;;;3.25;0.80;;;;;;;-145.49;100.00;55703.94;2057748;28;20195;-63
2024/02/26 11:34:22;;;;;;;3.30;0.80;;;;;;;-145.49;100.00;55703.94;2058212;28;20202;-63
2024/02/26 11:35:24;;;;;;;2.60;0.90;;;;;;;-145.49;100.00;55703.94;2060861;28;20198;-63
2024/02/26 11:36:25;;;;;;;1.50;0.80;;;;;;;-145.49;100.00;55703.94;2058922;28;20238;-64
2024/02/26 11:37:27;;;;;;;1.52;0.73;;;;;;;-145.49;100.00;55703.94;2053159;28;20199;-64
2024/02/26 11:38:29;;;;;;;6.30;0.90;;;;;;;-145.49;100.00;55703.94;2056283;28;20379;-64
2024/02/26 11:39:34;;;;;;;3.78;0.90;;;;;;;-145.49;100.00;55703.94;2058797;28;20206;-64
2024/02/26 11:40:40;;;;;;;1.75;0.88;;;;;;;-145.49;100.00;55703.94;2057900;28;20265;-64
2024/02/26 11:41:43;;;;;;;2.60;0.95;;;;;;;-145.49;100.00;55703.94;2058360;28;20219;-64
2024/02/26 11:42:45;;;;;;;6.78;2.55;;;;;;;-145.49;100.00;55703.94;2058677;28;20208;-64
2024/02/26 11:43:51;;;;;;;19.65;10.18;;;;;;;-145.49;100.00;55703.94;2057440;28;20253;-64
2024/02/26 11:44:53;;;;;;;4.50;0.98;;;;;;;-145.49;100.00;55703.94;2058423;28;20707;-64
2024/02/26 11:45:59;;;;;;;5.38;2.13;;;;;;;-145.49;100.00;55703.94;2057552;28;20611;-64
2024/02/26 11:47:13;;;;;;;1.85;0.95;;;;;;;-145.49;100.00;55703.94;2064607;28;20264;-64
2024/02/26 11:48:22;;;;;;;2.13;0.73;;;;;;;-145.49;100.00;55703.94;2066139;28;20197;-64
2024/02/26 11:49:30;;;;;;;1.67;0.82;;;;;;;-145.49;100.00;55703.94;2068151;28;20234;-64
2024/02/26 11:50:36;;;;;;;2.00;0.80;;;;;;;-145.49;100.00;55703.94;2068740;28;20194;-64
2024/02/26 11:51:41;;;;;;;2.70;0.93;;;;;;;-145.49;100.00;55703.94;2064685;28;20253;-64
2024/02/26 11:53:22;;;;;;;6.75;0.90;;;;;;;-145.49;100.00;55703.94;2062548;28;20198;-64
2024/02/26 11:54:42;;;;;;;3.03;0.90;;;;;;;-145.49;100.00;55703.94;2066589;28;20196;-64
2024/02/26 11:55:44;;;;;;;3.20;1.10;;;;;;;14.67;55.67;94928.88;2066055;28;20197;-63
2024/02/26 11:56:46;;;;;;;6.85;0.85;;;;;;;14.17;56.04;94932.28;2062168;28;20230;-64
2024/02/26 11:57:47;;;;;;;1.40;0.80;;;;;;;15.07;55.20;94935.84;2067419;28;20253;-61
2024/02/26 11:58:56;;;;;;;4.38;0.90;;;;;;;15.29;55.12;94942.63;2063716;28;20213;-61
2024/02/26 12:00:07;;;;;;;1.58;0.80;;;;;;;15.42;54.37;94938.88;2062228;28;20198;-63
2024/02/26 12:01:37;;;;;;;2.95;0.75;;;;;;;15.30;54.50;94936.38;2063421;28;20194;-65
2024/02/26 12:02:57;;;;;;;2.85;0.80;;;;;;;15.77;53.66;94940.03;2064934;28;20257;-63
2024/02/26 12:04:01;;;;;;;4.18;0.95;;;;;;;15.57;52.74;94939.28;2081177;28;20282;-64
2024/02/26 12:05:05;;;;;;;2.83;0.73;;;;;;;15.67;52.44;94938.28;2079296;28;20626;-64
2024/02/26 12:06:07;;;;;;;1.40;0.77;;;;;;;15.62;52.66;94939.69;2064401;28;20210;-63
2024/02/26 12:07:12;;;;;;;1.95;0.80;;;;;;;15.07;53.98;94941.09;2063930;28;20222;-63
2024/02/26 12:08:17;;;;;;;1.73;0.80;;;;;;;15.22;54.60;94940.69;2061031;28;20277;-64
2024/02/26 12:10:12;;;;;;;1.33;0.70;;;;;;;14.98;55.43;94937.50;2064761;28;20210;-64
2024/02/26 12:11:15;;;;;;;1.63;0.80;;;;;;;15.19;54.01;94944.41;2055838;28;20294;-67
2024/02/26 12:12:18;;;;;;;1.30;0.70;;;;;;;14.75;54.75;94941.34;2054489;28;20733;-67
2024/02/26 12:13:30;;;;;;;1.67;0.75;;;;;;;14.58;55.30;94943.63;2055791;28;20657;-67
2024/02/26 12:14:39;;;;;;;3.67;0.80;;;;;;;13.90;56.72;94944.19;2057159;28;20631;-67
2024/02/26 12:15:54;;;;;;;2.05;0.88;;;;;;;14.06;56.48;94942.91;2059434;28;20286;-67
2024/02/26 12:16:56;;;;;;;1.80;0.80;;;;;;;13.45;57.53;94942.69;2055219;28;20230;-67
2024/02/26 12:18:00;;;;;;;3.38;1.00;;;;;;;13.48;58.35;94942.41;2054617;28;20195;-67
2024/02/26 12:19:04;;;;;;;1.63;0.70;;;;;;;13.53;57.32;94949.91;2053910;28;20277;-67
2024/02/26 12:20:10;;;;;;;2.20;0.80;;;;;;;13.45;57.95;94949.72;2057099;28;20290;-67
2024/02/26 12:21:13;;;;;;;3.47;0.80;;;;;;;13.41;58.14;94946.53;2041833;28;20248;-67
2024/02/26 12:22:15;;;;;;;1.75;0.80;;;;;;;13.27;57.93;94955.50;2042746;28;20197;-66
2024/02/26 12:23:17;;;;;;;1.75;0.70;;;;;;;12.79;59.22;94954.13;2052790;28;20199;-66
2024/02/26 12:24:19;;;;;;;1.52;0.70;;;;;;;12.57;59.87;94955.84;2050947;28;20236;-66
2024/02/26 12:25:26;;;;;;;1.23;0.70;;;;;;;12.39;59.96;94947.66;2049822;28;20631;-66
2024/02/26 12:26:27;;;;;;;4.72;0.80;;;;;;;12.25;60.95;94953.13;2051853;28;20226;-66
2024/02/26 12:27:29;;;;;;;1.50;0.70;;;;;;;12.24;61.01;94961.97;2049801;28;20206;-66
2024/02/26 12:28:31;;;;;;;2.05;0.70;;;;;;;12.26;60.18;94954.81;2053360;28;20293;-66
2024/02/26 12:29:32;;;;;;;2.08;0.70;;;;;;;12.03;60.19;94927.81;2052297;28;20746;-67
2024/02/26 12:30:34;;;;;;;3.03;0.80;;;;;;;11.85;61.00;94949.19;2053873;28;20599;-66
2024/02/26 12:31:38;;;;;;;3.13;0.80;;;;;;;11.53;62.04;94952.47;2050912;28;20219;-67
2024/02/26 12:32:40;;;;;;;1.33;0.63;;;;;;;11.07;62.92;94928.00;2057262;28;20253;-69
2024/02/26 12:33:41;;;;;;;1.20;0.60;;;;;;;11.20;63.34;94956.66;2056991;28;20801;-66
2024/02/26 12:34:43;;;;;;;1.95;0.60;;;;;;;11.29;62.71;94949.91;2056884;28;20285;-66
2024/02/26 12:35:47;;;;;;;1.60;0.80;;;;;;;11.32;63.09;94959.31;2050829;28;20294;-66
2024/02/26 12:36:49;;;;;;;1.40;0.65;;;;;;;11.41;63.08;94954.25;2050276;28;20216;-67
2024/02/26 12:37:53;;;;;;;1.30;0.60;;;;;;;11.64;62.74;94956.06;2056514;28;20392;-66
2024/02/26 12:38:55;;;;;;;1.30;0.70;;;;;;;11.52;62.18;94956.03;2054269;28;20213;-67
2024/02/26 12:39:57;;;;;;;2.58;0.60;;;;;;;11.12;62.49;94940.69;2053511;28;20645;-66
2024/02/26 12:40:59;;;;;;;4.70;0.70;;;;;;;11.36;62.84;94951.09;2050232;28;20214;-66
2024/02/26 12:42:00;;;;;;;1.30;0.52;;;;;;;11.31;62.74;94958.44;2052320;28;20207;-66
2024/02/26 12:43:02;;;;;;;1.60;0.80;;;;;;;11.44;63.30;94961.00;2057466;28;20247;-66
2024/02/26 12:44:04;;;;;;;3.95;0.80;;;;;;;11.54;62.88;94966.34;2057768;28;20226;-66
2024/02/26 12:45:11;;;;;;;1.63;0.70;;;;;;;11.35;62.55;94962.53;2057742;28;20255;-66
2024/02/26 12:46:15;;;;;;;1.65;0.80;;;;;;;11.41;63.54;94959.47;2060569;28;20260;-67
2024/02/26 12:47:18;;;;;;;2.80;0.80;;;;;;;11.56;63.58;94954.03;2061127;28;20281;-67
2024/02/26 12:48:20;;;;;;;2.97;0.82;;;;;;;11.65;62.82;94958.53;2064518;28;20204;-67
2024/02/26 12:49:22;;;;;;;2.60;1.10;;;;;;;11.75;62.77;94958.69;2062594;28;20437;-67
2024/02/26 12:50:24;;;;;;;3.60;1.10;;;;;;;11.88;63.21;94962.03;2064581;28;20201;-67
2024/02/26 12:51:26;;;;;;;1.45;0.70;;;;;;;12.07;63.48;94963.25;2066796;28;20742;-67
2024/02/26 12:52:28;;;;;;;2.17;0.90;;;;;;;12.04;62.65;94955.66;2066911;28;20780;-66
2024/02/26 12:53:30;;;;;;;1.40;0.70;;;;;;;12.15;62.60;94960.88;2059412;28;20209;-66
2024/02/26 12:54:34;;;;;;;1.98;1.00;;;;;;;11.92;64.00;94958.22;2062402;28;20570;-66
2024/02/26 12:55:39;;;;;;;1.92;0.65;;;;;;;11.97;63.71;94960.50;2058260;28;20203;-66
2024/02/26 12:56:41;;;;;;;2.50;0.88;;;;;;;11.92;63.56;94960.00;2059192;28;20246;-66
2024/02/26 12:57:45;;;;;;;6.25;0.90;;;;;;;12.10;63.06;94960.41;2065811;28;20257;-66
2024/02/26 12:58:47;;;;;;;2.40;1.05;;;;;;;11.58;63.55;94957.34;2064219;28;20206;-66
2024/02/26 12:59:49;;;;;;;4.25;1.30;;;;;;;11.84;64.53;94967.63;2062155;28;20322;-66
2024/02/26 13:00:52;;;;;;;7.72;1.15;;;;;;;12.30;64.11;94963.25;2068006;28;20197;-66
2024/02/26 13:01:54;;;;;;;2.03;0.90;;;;;;;12.18;62.78;94971.09;2065158;28;20589;-66
2024/02/26 13:02:56;;;;;;;2.25;1.10;;;;;;;11.75;62.76;94959.50;2064000;28;20198;-66
2024/02/26 13:04:00;;;;;;;3.30;1.10;;;;;;;12.10;62.80;94973.50;2064509;28;20210;-66
2024/02/26 13:05:06;;;;;;;14.25;1.40;;;;;;;11.96;63.84;94968.47;2063602;28;20226;-66
2024/02/26 13:06:08;;;;;;;4.90;1.30;;;;;;;12.12;62.89;94968.97;2064010;28;20201;-66
2024/02/26 13:07:10;;;;;;;2.55;1.38;;;;;;;12.29;62.75;94945.88;2064667;28;20203;-66
2024/02/26 13:08:19;;;;;;;5.28;1.50;;;;;;;13.07;61.25;94963.19;2069837;28;20194;-66
2024/02/26 13:09:22;;;;;;;1.85;1.00;;;;;;;12.68;61.48;94959.38;2068760;28;20198;-66
2024/02/26 13:10:25;;;;;;;3.78;1.20;;;;;;;12.92;60.82;94959.19;2069018;28;20224;-66
2024/02/26 13:11:28;;;;;;;10.27;1.70;;;;;;;13.90;60.09;94966.97;2063079;28;20222;-67
2024/02/26 13:12:30;;;;;;;4.22;1.35;;;;;;;13.43;59.06;94954.25;2064387;28;20203;-66
2024/02/26 13:13:32;;;;;;;4.68;1.40;;;;;;;14.84;57.44;94969.41;2064081;28;20217;-67
2024/02/26 13:14:34;;;;;;;18.08;2.90;;;;;;;15.92;55.72;94961.53;2065315;28;20829;-66
2024/02/26 13:15:35;;;;;;;5.47;1.30;;;;;;;15.68;53.85;94965.44;2066114;28;20251;-66
2024/02/26 13:16:37;;;;;;;12.65;1.58;;;;;;;15.18;55.40;94966.41;2066462;28;20313;-66
2024/02/26 13:17:38;;;;;;;5.15;1.48;;;;;;;14.83;54.20;94965.13;2065194;28;20209;-66
2024/02/26 13:18:40;;;;;;;2.88;1.10;;;;;;;14.95;55.26;94961.41;2063090;28;20226;-67
2024/02/26 13:19:50;;;;;;;6.97;1.55;;;;;;;15.30;55.09;94967.94;2062843;28;20198;-67
2024/02/26 13:20:52;;;;;;;5.65;1.10;;;;;;;15.88;53.50;94963.59;2062173;28;20749;-66
2024/02/26 13:21:54;;;;;;;4.47;1.65;;;;;;;16.25;53.30;94964.59;2063842;28;20280;-66
2024/02/26 13:23:02;;;;;;;3.53;1.45;;;;;;;16.04;53.11;94967.47;2066128;28;20229;-66
2024/02/26 13:24:06;;;;;;;7.13;1.35;;;;;;;16.32;52.56;94963.88;2061588;28;20701;-66
2024/02/26 13:25:08;;;;;;;6.55;1.58;;;;;;;16.67;51.34;94968.56;2063929;28;20214;-66
2024/02/26 13:26:13;;;;;;;3.20;1.50;;;;;;;16.30;51.93;94970.25;2064698;28;20202;-66
2024/02/26 13:27:21;;;;;;;2.63;1.25;;;;;;;16.02;51.62;94980.75;2064896;28;20289;-63
2024/02/26 13:28:24;;;;;;;6.22;1.20;;;;;;;15.54;51.82;94977.22;2062245;28;20199;-63
2024/02/26 13:29:25;;;;;;;4.60;1.10;;;;;;;15.39;52.26;94982.06;2064739;28;20198;-66
2024/02/26 13:30:27;;;;;;;8.98;1.42;;;;;;;16.43;50.89;94973.41;2060569;28;20237;-66
2024/02/26 13:31:29;;;;;;;2.97;1.40;;;;;;;17.49;49.33;94979.16;2049875;28;20318;-66
2024/02/26 13:32:35;;;;;;;2.60;1.25;;;;;;;-145.49;100.00;55703.94;2067697;28;20205;-66
2024/02/26 13:33:37;;;;;;;3.35;1.20;;;;;;;-145.49;100.00;55703.94;2060837;28;20203;-67
2024/02/26 13:34:39;;;;;;;2.90;1.00;;;;;;;-145.49;100.00;55703.94;2063405;28;20305;-66
2024/02/26 13:35:41;;;;;;;11.73;1.52;;;;;;;16.95;49.05;94975.53;2065991;28;20217;-66
2024/02/26 13:36:42;;;;;;;7.47;1.00;;;;;;;17.07;48.33;94983.22;2062823;28;20260;-65
2024/02/26 13:37:44;;;;;;;4.75;1.45;;;;;;;15.88;49.58;94962.78;2063414;28;20284;-65
2024/02/26 13:38:55;;;;;;;4.88;1.13;;;;;;;14.82;52.13;94977.44;2061350;28;20281;-65
2024/02/26 13:39:57;;;;;;;20.55;1.63;;;;;;;15.45;51.79;94984.16;2064410;28;20229;-62
2024/02/26 13:40:58;;;;;;;12.45;1.33;;;;;;;15.17;51.75;94970.84;2063212;28;20732;-63
2024/02/26 13:42:00;;;;;;;15.57;1.27;;;;;;;15.63;52.20;94981.63;2065805;28;20360;-63
2024/02/26 13:43:02;;;;;;;2.42;1.05;;;;;;;15.05;52.35;94985.09;2064250;28;20237;-62
2024/02/26 13:44:03;;;;;;;7.10;1.25;;;;;;;13.98;53.35;94983.75;2063970;28;20278;-64
2024/02/26 13:45:08;;;;;;;3.47;1.00;;;;;;;13.62;54.71;94985.84;2063890;28;20203;-62
2024/02/26 13:46:15;;;;;;;3.90;1.10;;;;;;;13.41;55.67;94980.63;2062188;28;20256;-62
2024/02/26 13:47:18;;;;;;;2.60;1.00;;;;;;;14.01;53.67;94987.91;2062752;28;20847;-63
2024/02/26 13:48:19;;;;;;;5.70;1.10;;;;;;;13.69;54.43;94984.38;2063321;28;20207;-63
2024/02/26 13:49:21;;;;;;;3.20;1.10;;;;;;;13.22;55.50;94996.97;2064380;28;20202;-62
2024/02/26 13:50:24;;;;;;;4.85;1.40;;;;;;;13.16;56.28;94994.84;2065165;28;20280;-62
2024/02/26 13:51:25;;;;;;;5.53;1.00;;;;;;;13.77;55.17;94996.84;2065066;28;20221;-62
2024/02/26 13:52:27;;;;;;;4.40;1.30;;;;;;;13.91;54.64;94985.22;2063384;28;20200;-63
2024/02/26 13:53:28;;;;;;;3.33;1.00;;;;;;;14.29;52.72;94991.59;2061856;28;20202;-62
2024/02/26 13:54:34;;;;;;;5.53;1.38;;;;;;;14.45;53.18;94991.13;2062936;28;20292;-62
2024/02/26 13:55:36;;;;;;;2.15;1.27;;;;;;;14.17;53.07;94995.28;2062818;28;20201;-62
2024/02/26 13:56:38;;;;;;;2.75;1.33;;;;;;;14.39;53.22;94990.84;2060792;28;20225;-63
2024/02/26 13:57:40;;;;;;;1.60;0.98;;;;;;;13.73;53.92;94984.97;2064726;28;20202;-63
2024/02/26 13:58:41;;;;;;;9.52;1.20;;;;;;;13.57;54.72;94985.41;2065044;28;20194;-62
2024/02/26 13:59:43;;;;;;;2.90;1.10;;;;;;;14.04;54.11;94979.75;2062787;28;20199;-62
2024/02/26 14:00:45;;;;;;;4.78;1.48;;;;;;;14.87;53.71;94987.56;2065950;28;20206;-62
2024/02/26 14:01:46;;;;;;;4.20;1.08;;;;;;;14.76;52.79;94966.66;2064664;28;20260;-62
2024/02/26 14:02:48;;;;;;;2.45;1.15;;;;;;;15.22;52.24;94988.00;2064431;28;20714;-63
2024/02/26 14:03:50;;;;;;;2.25;0.95;;;;;;;16.00;51.27;94985.34;2059888;28;20206;-62
2024/02/26 14:04:52;;;;;;;3.95;1.27;;;;;;;16.11;50.64;94985.19;2067484;28;20203;-62
2024/02/26 14:05:53;;;;;;;3.90;1.08;;;;;;;16.46;50.02;94978.38;2063601;28;20256;-63
2024/02/26 14:06:55;;;;;;;3.80;1.00;;;;;;;16.90;49.30;94990.94;2059215;28;20222;-62
2024/02/26 14:07:57;;;;;;;2.38;0.80;;;;;;;16.31;48.33;94995.63;2065939;28;20190;-62
2024/02/26 14:08:59;;;;;;;7.47;0.90;;;;;;;15.95;49.94;94985.75;2063042;28;20286;-63
2024/02/26 14:10:01;;;;;;;2.28;1.15;;;;;;;16.18;49.76;94987.25;2061763;28;20233;-61
2024/02/26 14:11:02;;;;;;;19.20;1.30;;;;;;;15.97;49.93;94986.47;2062449;28;20950;-62
2024/02/26 14:12:04;;;;;;;4.97;1.20;;;;;;;14.89;51.07;94990.03;2062004;28;20771;-62
2024/02/26 14:13:06;;;;;;;5.38;1.33;;;;;;;15.25;51.47;94985.09;2062606;28;20206;-62
2024/02/26 14:14:07;;;;;;;4.90;1.27;;;;;;;15.82;49.55;94993.13;2062801;28;20198;-62
2024/02/26 14:15:10;;;;;;;6.35;1.25;;;;;;;16.49;48.83;94986.00;2063098;28;20294;-62
2024/02/26 14:16:13;;;;;;;2.75;1.10;;;;;;;17.34;47.95;94987.59;2058851;28;20199;-62
2024/02/26 14:17:15;;;;;;;2.42;1.15;;;;;;;16.70;48.33;94989.38;2061237;28;20297;-62
2024/02/26 14:18:16;;;;;;;6.20;1.30;;;;;;;17.03;48.05;94987.97;2061702;28;20221;-62
2024/02/26 14:19:18;;;;;;;4.07;1.15;;;;;;;15.69;49.25;94990.75;2060440;28;20196;-62
2024/02/26 14:20:20;;;;;;;5.85;1.20;;;;;;;15.99;48.75;94996.84;2062885;28;20207;-62
2024/02/26 14:21:22;;;;;;;4.82;1.33;;;;;;;16.49;48.49;94986.00;2060775;28;22211;-62
2024/02/26 14:22:26;;;;;;;6.85;1.15;;;;;;;15.88;48.12;94989.09;2066707;28;20202;-62
2024/02/26 14:23:28;;;;;;;4.75;1.05;;;;;;;15.37;50.36;94991.88;2062728;28;20791;-62
2024/02/26 14:24:29;;;;;;;4.47;2.10;;;;;;;15.94;49.01;94986.72;2063578;28;21239;-61
2024/02/26 14:25:31;;;;;;;2.92;1.00;;;;;;;15.35;49.16;94988.56;2064830;28;20235;-62